Time;durP1;ratioP1;P1;durP2;ratioP2;P2;SDS_P1;SDS_P2;PMS_P1;PMS_P2;Temp;Humidity;BMP_temperature;BMP_pressure;BME280_temperature;BME280_humidity;BME280_pressure;Samples;Min_cycle;Max_cycle;Signal;HPM_P1;HPM_P2
2022/05/31 00:02:24;;;;;;;4.10;3.03;;;;;;;10.04;60.79;98560.88;2618624;54;20350;-65
2022/05/31 00:04:57;;;;;;;3.38;2.90;;;;;;;10.02;60.64;98560.25;2617914;47;20569;-65
2022/05/31 00:07:26;;;;;;;4.07;3.22;;;;;;;9.96;60.74;98550.47;2619012;39;20438;-65
2022/05/31 00:09:56;;;;;;;7.43;2.92;;;;;;;9.99;61.29;98558.81;2618501;47;20077;-66
2022/05/31 00:12:25;;;;;;;3.97;2.97;;;;;;;9.96;60.54;98558.38;2618701;54;20026;-65
2022/05/31 00:14:55;;;;;;;3.35;2.85;;;;;;;9.88;61.27;98568.09;2618641;54;20041;-65
2022/05/31 00:17:25;;;;;;;4.47;3.33;;;;;;;9.84;61.30;98561.59;2618534;54;20045;-65
2022/05/31 00:19:57;;;;;;;3.38;2.70;;;;;;;9.93;61.28;98565.69;2618747;54;20034;-64
2022/05/31 00:22:29;;;;;;;3.83;3.10;;;;;;;9.96;60.94;98561.88;2618486;47;20030;-65
2022/05/31 00:24:58;;;;;;;5.55;3.00;;;;;;;10.02;61.26;98570.81;2623546;54;20042;-70
2022/05/31 00:27:28;;;;;;;3.50;3.13;;;;;;;9.96;61.26;98563.66;2622784;54;20141;-65
2022/05/31 00:29:58;;;;;;;6.55;3.25;;;;;;;9.96;61.13;98561.88;2619797;54;20038;-64
2022/05/31 00:32:30;;;;;;;4.65;2.97;;;;;;;10.01;60.95;98564.72;2618207;54;20034;-65
2022/05/31 00:35:07;;;;;;;3.35;2.90;;;;;;;9.76;61.37;98566.19;2618777;39;20410;-65
2022/05/31 00:37:38;;;;;;;5.10;3.30;;;;;;;9.70;61.06;98569.59;2618559;54;20077;-65
2022/05/31 00:40:10;;;;;;;5.25;3.28;;;;;;;9.65;61.76;98572.81;2618134;47;20034;-65
2022/05/31 00:42:59;;;;;;;3.13;2.83;;;;;;;9.60;62.08;98570.75;2619187;39;20469;-65
2022/05/31 00:45:35;;;;;;;4.43;2.75;;;;;;;9.54;62.27;98571.50;2617835;54;20154;-66
2022/05/31 00:48:09;;;;;;;3.92;3.53;;;;;;;9.60;62.11;98564.66;2617744;54;20105;-69
2022/05/31 00:50:47;;;;;;;2.97;2.67;;;;;;;9.54;62.36;98563.59;2618137;54;20049;-65
2022/05/31 00:53:20;;;;;;;3.20;2.67;;;;;;;9.64;62.22;98564.09;2618837;54;20037;-65
2022/05/31 00:55:54;;;;;;;3.05;2.75;;;;;;;9.66;61.81;98558.59;2618252;54;20027;-65
2022/05/31 00:58:27;;;;;;;3.50;2.60;;;;;;;9.68;61.80;98559.25;2618751;54;20060;-65
2022/05/31 01:00:58;;;;;;;2.90;2.70;;;;;;;9.49;62.07;98565.19;2618341;54;20049;-65
2022/05/31 01:03:30;;;;;;;4.35;3.33;;;;;;;9.43;62.06;98567.59;2618698;54;20109;-64
2022/05/31 01:06:02;;;;;;;3.00;2.72;;;;;;;9.35;62.63;98559.81;2618663;54;20046;-64
2022/05/31 01:08:34;;;;;;;3.30;2.95;;;;;;;9.32;62.48;98554.09;2618395;47;20037;-65
2022/05/31 01:11:33;;;;;;;3.58;2.80;;;;;;;9.17;62.45;98560.25;2618917;47;20122;-65
2022/05/31 01:14:30;;;;;;;4.97;3.25;;;;;;;9.10;62.88;98553.28;2618556;47;20038;-65
2022/05/31 01:17:11;;;;;;;3.30;3.00;;;;;;;9.05;62.93;98560.94;2619662;39;20449;-65
2022/05/31 01:20:22;;;;;;;4.43;3.20;;;;;;;9.03;63.00;98562.97;2617040;54;20182;-65
2022/05/31 01:22:59;;;;;;;2.70;2.50;;;;;;;9.01;63.12;98567.59;2618793;39;20543;-64
2022/05/31 01:25:51;;;;;;;3.80;3.10;;;;;;;8.97;63.42;98566.34;2618462;47;20037;-64
2022/05/31 01:28:32;;;;;;;4.22;3.60;;;;;;;8.91;63.34;98560.00;2618455;54;20121;-64
2022/05/31 01:31:08;;;;;;;4.57;3.28;;;;;;;8.82;63.52;98563.78;2617993;54;20026;-64
2022/05/31 01:33:44;;;;;;;3.50;2.83;;;;;;;8.75;63.73;98557.63;2617708;47;20019;-64
2022/05/31 01:36:21;;;;;;;4.90;3.10;;;;;;;8.72;63.70;98560.63;2617850;47;20796;-64
2022/05/31 01:38:56;;;;;;;3.05;2.85;;;;;;;8.62;63.56;98551.19;2618188;54;20030;-65
2022/05/31 01:41:28;;;;;;;;;;;;;;;8.54;64.12;98550.50;2618737;54;20030;-64
2022/05/31 01:44:00;;;;;;;3.45;2.70;;;;;;;8.46;64.29;98554.06;2618638;54;19946;-64
2022/05/31 01:46:32;;;;;;;5.15;2.67;;;;;;;8.42;64.18;98552.78;2618442;54;20038;-64
2022/05/31 01:49:07;;;;;;;2.80;2.30;;;;;;;8.46;64.42;98553.25;2617629;54;20053;-64
2022/05/31 01:51:42;;;;;;;2.85;2.40;;;;;;;8.42;64.10;98550.97;2618964;39;20669;-64
2022/05/31 01:54:14;;;;;;;4.55;2.53;;;;;;;8.58;64.09;98549.13;2618436;54;20039;-65
2022/05/31 01:56:47;;;;;;;3.38;2.65;;;;;;;8.67;64.01;98551.44;2618002;39;20450;-64
2022/05/31 01:59:17;;;;;;;3.55;2.58;;;;;;;8.76;63.78;98543.41;2617675;54;20026;-66
2022/05/31 02:01:48;;;;;;;4.00;2.40;;;;;;;8.75;63.52;98547.06;2617883;51;20026;-65
2022/05/31 02:04:19;;;;;;;4.70;3.25;;;;;;;8.72;63.63;98550.88;2618477;54;20102;-64
2022/05/31 02:07:10;;;;;;;4.13;2.75;;;;;;;8.78;64.03;98551.97;2618324;54;20037;-65
2022/05/31 02:09:43;;;;;;;4.05;3.30;;;;;;;8.85;64.13;98550.19;2619304;31;20539;-65
2022/05/31 02:12:27;;;;;;;4.10;2.95;;;;;;;8.91;64.04;98549.47;2617248;54;20034;-65
2022/05/31 02:15:15;;;;;;;5.05;3.25;;;;;;;8.76;63.61;98549.50;2618641;54;20562;-64
2022/05/31 02:18:15;;;;;;;5.35;3.00;;;;;;;8.60;64.09;98552.38;2617375;54;20030;-65
2022/05/31 02:21:05;;;;;;;4.35;3.03;;;;;;;8.54;64.39;98542.59;2617439;54;20130;-65
2022/05/31 02:23:37;;;;;;;4.00;3.00;;;;;;;8.61;64.64;98544.31;2618127;54;20613;-65
2022/05/31 02:26:07;;;;;;;3.22;2.92;;;;;;;8.62;63.99;98553.03;2617944;54;20034;-65
2022/05/31 02:28:37;;;;;;;3.97;2.78;;;;;;;8.53;64.12;98547.03;2617484;47;20039;-64
2022/05/31 02:31:07;;;;;;;3.10;2.80;;;;;;;8.56;64.25;98549.28;2617848;47;20034;-65
2022/05/31 02:33:36;;;;;;;3.50;2.78;;;;;;;8.53;64.15;98549.69;2618116;54;20079;-65
2022/05/31 02:36:06;;;;;;;3.90;3.53;;;;;;;8.60;64.38;98550.56;2619012;54;20022;-64
2022/05/31 02:38:38;;;;;;;3.13;2.58;;;;;;;8.63;64.04;98544.09;2622216;54;20019;-65
2022/05/31 02:41:08;;;;;;;4.63;3.00;;;;;;;8.51;64.07;98541.13;2622439;47;20158;-65
2022/05/31 02:43:38;;;;;;;4.47;3.22;;;;;;;8.35;64.28;98541.31;2622788;47;20543;-65
2022/05/31 02:46:08;;;;;;;3.83;2.95;;;;;;;8.21;64.82;98536.91;2620515;39;20555;-65
2022/05/31 02:48:38;;;;;;;3.60;3.30;;;;;;;8.21;65.18;98539.53;2618540;39;20421;-65
2022/05/31 02:51:08;;;;;;;4.50;2.90;;;;;;;8.28;64.85;98535.16;2618164;54;20030;-65
2022/05/31 02:53:40;;;;;;;3.50;2.83;;;;;;;8.35;64.91;98536.88;2617557;47;20039;-65
2022/05/31 02:56:10;;;;;;;3.40;2.90;;;;;;;8.28;64.36;98530.69;2618145;39;20404;-64
2022/05/31 02:58:56;;;;;;;3.55;3.25;;;;;;;8.25;64.73;98527.63;2617929;54;20033;-64
2022/05/31 03:01:45;;;;;;;3.58;3.15;;;;;;;8.14;64.71;98531.53;2618498;54;20125;-65
2022/05/31 03:04:50;;;;;;;5.20;3.47;;;;;;;8.10;64.35;98525.81;2617080;47;20059;-64
2022/05/31 03:07:45;;;;;;;3.63;2.70;;;;;;;8.01;64.99;98520.84;2617002;54;20026;-64
2022/05/31 03:10:22;;;;;;;;;;;;;;;8.00;65.20;98529.72;2617678;54;20034;-64
2022/05/31 03:12:55;;;;;;;3.40;3.10;;;;;;;8.00;64.90;98529.72;2617409;47;19947;-64
2022/05/31 03:15:26;;;;;;;3.63;3.17;;;;;;;7.99;65.10;98528.91;2617436;51;20030;-64
2022/05/31 03:18:00;;;;;;;3.38;3.08;;;;;;;7.99;64.64;98530.72;2617719;54;20037;-64
2022/05/31 03:20:34;;;;;;;3.45;2.78;;;;;;;7.94;65.15;98520.75;2618984;54;20054;-64
2022/05/31 03:23:05;;;;;;;;;;;;;;;7.87;64.95;98515.38;2619022;54;20637;-64
2022/05/31 03:25:42;;;;;;;4.88;3.58;;;;;;;7.82;65.39;98522.22;2618756;54;19939;-64
2022/05/31 03:28:12;;;;;;;3.40;3.10;;;;;;;7.75;65.46;98508.13;2618928;54;20556;-65
2022/05/31 03:30:42;;;;;;;3.13;2.83;;;;;;;7.72;65.65;98509.34;2620024;54;20034;-65
2022/05/31 03:33:14;;;;;;;3.25;2.95;;;;;;;7.68;65.70;98508.06;2619090;54;20030;-65
2022/05/31 03:35:44;;;;;;;4.13;3.60;;;;;;;7.74;65.83;98509.97;2618761;54;20030;-64
2022/05/31 03:38:20;;;;;;;6.85;4.70;;;;;;;7.82;65.70;98511.69;2617843;47;20034;-64
2022/05/31 03:41:01;;;;;;;6.47;3.88;;;;;;;7.95;65.73;98510.03;2618655;54;20038;-66
2022/05/31 03:43:41;;;;;;;3.97;3.55;;;;;;;8.03;65.14;98505.69;2618407;47;20038;-64
2022/05/31 03:46:23;;;;;;;4.47;3.10;;;;;;;7.92;65.06;98493.81;2618798;54;20042;-64
2022/05/31 03:49:00;;;;;;;6.50;3.22;;;;;;;7.80;65.51;98497.91;2618846;39;20427;-64
2022/05/31 03:51:39;;;;;;;4.07;3.25;;;;;;;7.80;65.29;98508.44;2617970;54;20153;-64
2022/05/31 03:54:25;;;;;;;3.17;2.88;;;;;;;7.87;65.40;98501.41;2618068;54;20558;-64
2022/05/31 03:57:19;;;;;;;5.72;3.58;;;;;;;7.97;65.52;98507.25;2618550;54;20031;-64
2022/05/31 04:00:14;;;;;;;5.07;3.22;;;;;;;8.11;64.82;98495.03;2618286;54;20037;-64
2022/05/31 04:02:46;;;;;;;4.45;3.45;;;;;;;8.08;64.36;98495.41;2618556;54;20034;-65
2022/05/31 04:05:18;;;;;;;4.47;3.40;;;;;;;8.11;64.82;98498.50;2618635;39;20443;-65
2022/05/31 04:07:48;;;;;;;4.10;3.63;;;;;;;8.05;64.72;98491.34;2618053;47;20139;-65
2022/05/31 04:10:17;;;;;;;4.07;3.28;;;;;;;8.06;65.06;98500.06;2618487;39;20403;-65
2022/05/31 04:12:50;;;;;;;3.10;2.90;;;;;;;8.14;64.67;98506.03;2618119;47;20018;-65
2022/05/31 04:15:46;;;;;;;4.30;3.33;;;;;;;8.17;64.76;98505.66;2617942;54;20069;-64
2022/05/31 04:18:16;;;;;;;5.47;3.80;;;;;;;8.21;64.98;98503.47;2617902;47;20034;-64
2022/05/31 04:20:46;;;;;;;4.70;3.65;;;;;;;8.31;64.35;98500.56;2617932;46;20090;-65
2022/05/31 04:26:16;;;;;;;6.18;3.75;;;;;;;8.40;64.60;98497.63;2619228;39;20458;-64
2022/05/31 04:29:09;;;;;;;14.95;8.15;;;;;;;8.62;64.47;98498.50;2618057;54;20150;-65
2022/05/31 04:32:01;;;;;;;7.03;5.43;;;;;;;8.80;63.63;98494.59;2618524;47;20060;-65
2022/05/31 04:34:42;;;;;;;4.55;3.78;;;;;;;8.71;63.51;98487.84;2617904;54;20022;-66
2022/05/31 04:37:13;;;;;;;7.75;5.82;;;;;;;8.73;63.53;98494.53;2617624;47;20034;-65
2022/05/31 04:40:02;;;;;;;5.72;4.57;;;;;;;8.84;63.63;98496.66;2618567;54;20129;-64
2022/05/31 04:42:51;;;;;;;4.60;3.50;;;;;;;8.99;63.50;98490.53;2618640;54;20037;-65
2022/05/31 04:45:58;;;;;;;5.85;3.55;;;;;;;9.21;62.99;98496.56;2618690;54;20065;-65
2022/05/31 04:48:43;;;;;;;3.72;3.42;;;;;;;9.29;62.56;98497.25;2617891;54;20034;-64
2022/05/31 04:51:13;;;;;;;8.88;7.18;;;;;;;9.32;63.07;98496.88;2618023;54;20035;-64
2022/05/31 04:53:53;;;;;;;5.80;4.40;;;;;;;9.31;62.21;98499.72;2618189;47;20023;-65
2022/05/31 04:56:40;;;;;;;5.60;3.97;;;;;;;9.22;62.11;98498.19;2622349;54;20033;-64
2022/05/31 04:59:13;;;;;;;7.85;5.63;;;;;;;9.22;62.83;98501.66;2628719;47;20035;-64
2022/05/31 05:01:46;;;;;;;4.22;3.65;;;;;;;9.32;62.79;98499.50;2628312;54;20075;-64
2022/05/31 05:04:25;;;;;;;4.38;3.97;;;;;;;9.37;61.67;98505.03;2629165;47;20026;-64
2022/05/31 05:06:59;;;;;;;6.93;4.47;;;;;;;9.32;62.04;98498.69;2629055;47;20033;-64
2022/05/31 05:09:29;;;;;;;5.47;3.97;;;;;;;9.45;62.27;98497.97;2628621;54;20026;-64
2022/05/31 05:12:25;;;;;;;5.43;3.75;;;;;;;9.65;61.70;98499.72;2628620;51;20035;-64
2022/05/31 05:15:02;;;;;;;4.80;3.97;;;;;;;9.70;61.24;98507.06;2625402;47;20023;-65
2022/05/31 05:17:36;;;;;;;7.22;4.25;;;;;;;9.79;61.17;98494.53;2620334;47;20126;-65
2022/05/31 05:20:10;;;;;;;4.53;3.50;;;;;;;9.78;60.57;98496.34;2620182;47;20053;-64
2022/05/31 05:22:40;;;;;;;5.50;4.20;;;;;;;9.83;60.89;98501.84;2625225;47;20062;-63
2022/05/31 05:25:11;;;;;;;4.85;3.65;;;;;;;10.02;61.11;98486.31;2625618;54;20122;-63
2022/05/31 05:27:59;;;;;;;5.88;4.88;;;;;;;10.18;60.23;98493.91;2625991;54;20031;-62
2022/05/31 05:30:39;;;;;;;6.07;4.22;;;;;;;10.25;60.78;98486.84;2625306;54;20078;-64
2022/05/31 05:33:40;;;;;;;5.90;3.38;;;;;;;10.37;60.13;98495.84;2624609;54;20050;-63
2022/05/31 05:36:16;;;;;;;3.85;3.45;;;;;;;10.41;59.78;98496.25;2626497;54;20030;-63
2022/05/31 05:38:48;;;;;;;4.70;3.60;;;;;;;10.40;59.66;98490.13;2624939;54;20022;-63
2022/05/31 05:41:36;;;;;;;7.55;4.13;;;;;;;10.53;59.76;98504.41;2623265;54;20061;-63
2022/05/31 05:44:24;;;;;;;6.22;4.25;;;;;;;10.62;59.86;98501.38;2625359;54;20082;-62
2022/05/31 05:46:55;;;;;;;4.78;4.22;;;;;;;10.77;59.26;98500.38;2625153;54;20057;-62
2022/05/31 05:49:27;;;;;;;6.53;4.15;;;;;;;10.87;58.94;98499.00;2624518;47;20027;-62
2022/05/31 05:52:01;;;;;;;4.85;3.92;;;;;;;10.97;59.01;98508.34;2619719;47;20023;-63
2022/05/31 05:54:50;;;;;;;6.30;4.57;;;;;;;11.09;59.06;98506.72;2618752;54;20573;-64
2022/05/31 05:57:38;;;;;;;5.78;4.53;;;;;;;11.25;58.83;98501.03;2618878;54;20572;-63
2022/05/31 06:00:27;;;;;;;4.85;4.32;;;;;;;11.36;58.57;98500.41;2621562;54;20060;-64
2022/05/31 06:03:02;;;;;;;5.65;4.53;;;;;;;11.40;58.50;98504.28;2622957;54;20097;-64
2022/05/31 06:05:50;;;;;;;7.45;3.97;;;;;;;11.61;58.03;98507.72;2622786;54;20029;-64
2022/05/31 06:08:25;;;;;;;4.47;3.80;;;;;;;11.78;57.57;98494.84;2622129;47;20034;-65
2022/05/31 06:11:08;;;;;;;6.05;4.22;;;;;;;12.17;57.15;98490.50;2623557;54;20034;-64
2022/05/31 06:13:43;;;;;;;5.20;3.78;;;;;;;12.50;56.74;98498.28;2622522;54;20027;-64
2022/05/31 06:16:14;;;;;;;4.35;3.65;;;;;;;12.71;55.97;98500.59;2621125;51;20110;-64
2022/05/31 06:18:52;;;;;;;5.90;3.22;;;;;;;12.72;55.56;98502.22;2620047;54;20031;-63
2022/05/31 06:21:27;;;;;;;10.10;5.82;;;;;;;12.82;55.20;98504.44;2620226;54;20034;-65
2022/05/31 06:24:06;;;;;;;11.53;5.37;;;;;;;12.73;54.80;98497.72;2619851;47;20037;-63
2022/05/31 06:26:36;;;;;;;4.68;3.25;;;;;;;12.83;55.10;98492.78;2620144;54;20029;-64
2022/05/31 06:29:07;;;;;;;5.55;4.10;;;;;;;13.03;55.17;98496.09;2619751;47;20049;-65
2022/05/31 06:31:38;;;;;;;6.60;4.63;;;;;;;13.10;54.55;98494.22;2620758;47;20034;-64
2022/05/31 06:34:17;;;;;;;4.20;3.75;;;;;;;13.11;54.20;98495.84;2620036;53;20043;-65
2022/05/31 06:37:21;;;;;;;4.30;2.92;;;;;;;13.12;54.29;98486.84;2618350;39;20422;-64
2022/05/31 16:17:54;;;;;;;3.75;1.92;;;;;;;23.15;27.06;98328.22;2572744;54;20045;-66
2022/05/31 16:20:24;;;;;;;2.87;1.57;;;;;;;23.35;26.58;98327.19;2620657;54;20041;-64
2022/05/31 16:22:57;;;;;;;3.08;1.33;;;;;;;23.47;26.51;98340.22;2621111;54;20030;-64
2022/05/31 16:25:29;;;;;;;2.97;1.73;;;;;;;23.51;26.36;98326.97;2620792;39;20391;-64
2022/05/31 16:28:00;;;;;;;6.78;1.77;;;;;;;23.62;26.00;98323.06;2620708;54;20027;-63
2022/05/31 16:33:17;;;;;;;4.57;1.85;;;;;;;24.01;25.40;98335.56;2618575;47;20042;-64
2022/05/31 16:35:48;;;;;;;3.83;1.90;;;;;;;24.07;25.27;98340.56;2619162;54;20038;-63
2022/05/31 16:41:14;;;;;;;4.20;1.45;;;;;;;23.07;26.67;98346.91;2620542;39;20430;-64
2022/05/31 16:43:46;;;;;;;2.08;1.52;;;;;;;22.88;26.58;98357.56;2619062;46;20050;-63
2022/05/31 16:46:18;;;;;;;2.67;1.70;;;;;;;23.08;26.46;98348.50;2618866;54;20070;-65
2022/05/31 16:48:51;;;;;;;1.17;1.02;;;;;;;23.38;25.69;98350.84;2618408;54;20553;-63
2022/05/31 16:51:27;;;;;;;6.05;1.95;;;;;;;23.72;25.54;98336.47;2619015;54;20042;-65
2022/05/31 16:54:02;;;;;;;1.70;1.55;;;;;;;24.12;24.85;98345.88;2619240;54;20547;-64
2022/05/31 16:56:34;;;;;;;3.15;1.65;;;;;;;24.44;24.70;98331.66;2619226;54;20114;-63
2022/05/31 16:59:10;;;;;;;3.30;1.70;;;;;;;24.11;24.62;98340.78;2618748;54;20046;-64
2022/05/31 17:01:40;;;;;;;2.53;1.65;;;;;;;23.74;25.25;98342.38;2618960;54;20027;-63
2022/05/31 17:04:13;;;;;;;2.63;1.85;;;;;;;23.74;25.23;98347.78;2619129;54;20027;-64
2022/05/31 17:14:54;;;;;;;5.35;1.60;;;;;;;24.78;23.73;98364.91;2619306;54;20530;-64
2022/05/31 17:17:23;;;;;;;2.50;1.40;;;;;;;24.96;23.50;98356.75;2619340;54;20034;-64
2022/05/31 17:20:16;;;;;;;1.55;0.90;;;;;;;25.10;22.86;98356.00;2619773;54;20026;-63
2022/05/31 17:22:46;;;;;;;2.13;1.10;;;;;;;25.28;22.49;98346.22;2620138;54;20031;-65
2022/05/31 17:25:19;;;;;;;1.60;1.10;;;;;;;25.09;22.75;98357.91;2619717;54;20566;-65
2022/05/31 17:27:49;;;;;;;1.30;1.20;;;;;;;24.29;23.52;98363.47;2619791;54;20037;-63
2022/05/31 17:30:19;;;;;;;3.95;1.33;;;;;;;23.82;24.14;98365.22;2620238;54;20034;-63
2022/05/31 17:32:53;;;;;;;2.10;1.10;;;;;;;23.44;24.24;98371.31;2620273;54;20038;-64
2022/05/31 17:35:25;;;;;;;1.63;1.23;;;;;;;22.95;24.65;98385.81;2619012;47;20023;-64
2022/05/31 17:37:55;;;;;;;4.13;1.10;;;;;;;22.67;25.13;98387.38;2618457;39;20438;-64
2022/05/31 17:40:24;;;;;;;2.38;1.00;;;;;;;22.36;25.18;98383.28;2618789;54;20035;-64
2022/05/31 17:42:54;;;;;;;2.55;1.40;;;;;;;22.07;25.88;98402.00;2618455;47;20038;-66
2022/05/31 17:45:24;;;;;;;2.40;1.25;;;;;;;21.77;25.97;98392.97;2618361;54;20555;-63
2022/05/31 17:47:54;;;;;;;2.95;1.23;;;;;;;21.66;26.13;98399.47;2617975;54;20090;-66
2022/05/31 17:50:26;;;;;;;1.30;1.10;;;;;;;21.59;26.49;98389.00;2618253;54;20022;-65
2022/05/31 17:52:56;;;;;;;2.45;1.42;;;;;;;21.54;26.82;98399.78;2618133;54;20038;-65
2022/05/31 17:55:26;;;;;;;5.75;1.50;;;;;;;21.49;26.95;98407.88;2618181;54;20022;-66
2022/05/31 17:57:55;;;;;;;1.45;1.08;;;;;;;21.40;26.84;98406.81;2618516;39;20425;-65
2022/05/31 18:00:32;;;;;;;2.25;1.38;;;;;;;21.67;26.33;98403.78;2618377;54;20030;-65
2022/05/31 18:03:02;;;;;;;2.17;1.33;;;;;;;22.83;25.72;98414.19;2619474;39;20442;-67
2022/05/31 18:05:35;;;;;;;3.03;1.33;;;;;;;22.82;25.39;98407.16;2618214;54;20561;-66
2022/05/31 18:08:06;;;;;;;;;;;;;;;22.35;25.89;98413.97;2618300;54;20049;-67
2022/05/31 18:10:37;;;;;;;4.07;1.20;;;;;;;22.00;25.95;98418.44;2618363;54;19939;-65
2022/05/31 18:13:07;;;;;;;4.53;1.30;;;;;;;21.72;26.22;98419.91;2618363;54;20045;-64
2022/05/31 18:15:37;;;;;;;3.53;2.40;;;;;;;21.66;26.30;98423.69;2618854;39;20249;-65
2022/05/31 18:18:07;;;;;;;2.78;1.20;;;;;;;21.54;26.79;98421.28;2618181;54;20538;-65
2022/05/31 18:20:40;;;;;;;2.03;1.00;;;;;;;21.30;26.30;98422.94;2618191;54;20542;-65
2022/05/31 18:23:12;;;;;;;1.17;1.05;;;;;;;21.18;26.93;98425.91;2618582;54;20542;-65
2022/05/31 18:25:44;;;;;;;1.40;1.20;;;;;;;21.12;27.21;98419.72;2618303;54;20546;-66
2022/05/31 18:31:00;;;;;;;1.27;0.95;;;;;;;20.98;27.14;98427.53;2618136;54;20084;-64
2022/05/31 18:33:31;;;;;;;2.05;1.10;;;;;;;20.99;27.36;98428.34;2617725;54;20034;-63
2022/05/31 18:36:06;;;;;;;1.35;1.00;;;;;;;20.96;27.28;98429.69;2617858;54;20066;-65
2022/05/31 18:41:18;;;;;;;1.38;1.25;;;;;;;20.88;27.67;98432.91;2618163;54;20039;-64
2022/05/31 18:43:48;;;;;;;2.13;1.92;;;;;;;20.83;27.44;98432.91;2618639;54;20908;-65
2022/05/31 18:46:21;;;;;;;4.75;2.15;;;;;;;20.70;27.33;98439.63;2618852;39;20448;-65
2022/05/31 18:48:54;;;;;;;7.00;3.80;;;;;;;20.62;28.08;98442.84;2621010;54;20042;-65
2022/05/31 18:51:27;;;;;;;3.35;2.65;;;;;;;20.57;27.87;98444.69;2618584;47;20038;-66
2022/05/31 18:53:57;;;;;;;1.45;1.20;;;;;;;20.42;28.18;98448.94;2618409;47;20061;-64
2022/05/31 18:56:26;;;;;;;4.07;2.25;;;;;;;20.32;28.52;98448.09;2619138;54;20550;-65
2022/05/31 18:58:57;;;;;;;3.13;1.30;;;;;;;20.14;28.61;98460.94;2618290;54;20041;-65
2022/05/31 19:01:27;;;;;;;2.20;1.02;;;;;;;20.00;28.60;98460.63;2619388;46;20058;-65
2022/05/31 19:03:57;;;;;;;2.88;1.52;;;;;;;19.97;29.05;98465.69;2619394;39;20416;-65
2022/05/31 19:06:30;;;;;;;2.08;1.77;;;;;;;19.93;29.54;98468.09;2619020;54;20581;-64
2022/05/31 19:09:00;;;;;;;1.50;1.10;;;;;;;19.82;29.78;98474.47;2618586;54;20090;-64
2022/05/31 19:11:30;;;;;;;1.52;1.10;;;;;;;19.72;29.59;98480.59;2618892;54;20566;-67
2022/05/31 19:14:01;;;;;;;1.67;1.33;;;;;;;19.67;29.68;98483.22;2618907;54;20035;-64
2022/05/31 19:16:31;;;;;;;3.75;1.75;;;;;;;19.64;29.98;98486.44;2619082;54;20027;-65
2022/05/31 19:19:01;;;;;;;4.22;2.00;;;;;;;19.65;30.04;98490.72;2618248;54;20034;-65
2022/05/31 19:21:37;;;;;;;1.83;1.48;;;;;;;19.61;29.69;98494.16;2618724;54;20026;-64
2022/05/31 19:24:09;;;;;;;7.15;3.70;;;;;;;19.55;29.73;98491.47;2618975;54;20042;-64
2022/05/31 19:26:39;;;;;;;7.28;4.47;;;;;;;19.49;29.89;98491.66;2619206;54;20026;-63
2022/05/31 19:29:09;;;;;;;7.35;3.45;;;;;;;19.39;29.99;98494.25;2618787;54;20027;-65
2022/05/31 19:31:42;;;;;;;3.50;1.63;;;;;;;19.32;30.13;98501.75;2618801;54;20030;-64
2022/05/31 19:34:28;;;;;;;3.03;2.63;;;;;;;19.28;29.95;98502.25;2618033;47;20038;-65
2022/05/31 19:37:01;;;;;;;4.32;2.08;;;;;;;19.21;30.11;98500.84;2618655;54;20035;-64
2022/05/31 19:39:31;;;;;;;2.13;1.33;;;;;;;19.15;30.31;98515.28;2618656;54;20026;-64
2022/05/31 19:42:01;;;;;;;4.20;1.25;;;;;;;19.04;30.62;98520.53;2619562;54;20069;-65
2022/05/31 19:44:30;;;;;;;1.98;1.20;;;;;;;19.02;30.80;98521.84;2620020;54;20046;-64
2022/05/31 19:47:00;;;;;;;1.75;1.13;;;;;;;18.94;30.84;98520.44;2619585;54;20040;-63
2022/05/31 19:49:30;;;;;;;3.58;2.63;;;;;;;18.92;31.06;98519.06;2619750;39;20447;-64
2022/05/31 19:52:04;;;;;;;3.33;2.03;;;;;;;18.84;30.89;98520.34;2619475;54;20046;-64
2022/05/31 19:54:35;;;;;;;7.28;5.05;;;;;;;18.77;30.98;98525.06;2620556;54;20027;-64
2022/05/31 19:57:08;;;;;;;3.35;2.47;;;;;;;18.77;31.40;98536.59;2624350;54;20039;-65
2022/05/31 19:59:37;;;;;;;2.40;1.60;;;;;;;18.73;31.76;98532.00;2623972;54;20034;-65
2022/05/31 20:02:07;;;;;;;2.60;1.63;;;;;;;18.65;31.78;98541.25;2623735;47;20041;-64
2022/05/31 20:04:37;;;;;;;2.35;1.80;;;;;;;18.54;32.15;98542.22;2623535;54;20042;-66
2022/05/31 20:07:10;;;;;;;3.33;2.05;;;;;;;18.42;32.74;98545.03;2622703;54;20037;-64
2022/05/31 20:12:22;;;;;;;4.25;3.08;;;;;;;18.31;33.06;98545.94;2621417;54;20126;-66
2022/05/31 20:14:51;;;;;;;5.10;3.00;;;;;;;18.23;33.14;98552.53;2622018;39;20431;-64
2022/05/31 20:17:21;;;;;;;2.40;2.20;;;;;;;18.14;33.33;98551.34;2622388;54;20027;-66
2022/05/31 20:19:52;;;;;;;3.97;2.40;;;;;;;18.04;33.88;98552.03;2623370;54;20023;-66
2022/05/31 20:22:28;;;;;;;5.22;2.88;;;;;;;17.91;34.07;98556.91;2621669;47;20114;-64
2022/05/31 20:24:59;;;;;;;2.80;2.50;;;;;;;17.82;34.21;98557.34;2621198;47;20597;-67
2022/05/31 20:27:30;;;;;;;1.65;1.50;;;;;;;17.72;34.55;98559.84;2620070;39;20221;-67
2022/05/31 20:30:00;;;;;;;4.05;1.85;;;;;;;17.64;34.72;98568.28;2619457;54;20034;-66
2022/05/31 20:32:29;;;;;;;6.18;2.53;;;;;;;17.57;35.09;98564.94;2619333;47;20030;-66
2022/05/31 20:34:59;;;;;;;2.25;1.50;;;;;;;17.46;35.83;98565.84;2619096;47;20027;-66
2022/05/31 20:37:32;;;;;;;2.70;1.67;;;;;;;17.40;35.62;98564.94;2618638;47;20026;-66
2022/05/31 20:40:02;;;;;;;3.00;1.92;;;;;;;17.31;36.20;98569.88;2618157;46;20029;-66
2022/05/31 20:42:38;;;;;;;4.05;1.98;;;;;;;17.23;36.92;98566.81;2619135;39;20430;-66
2022/05/31 20:45:15;;;;;;;4.00;2.40;;;;;;;17.14;36.65;98577.03;2618545;54;20030;-64
2022/05/31 20:47:45;;;;;;;4.72;2.78;;;;;;;17.06;37.55;98577.44;2619025;39;20441;-67
2022/05/31 20:50:15;;;;;;;4.22;2.40;;;;;;;16.98;37.82;98588.50;2618035;47;20030;-64
2022/05/31 20:52:52;;;;;;;3.97;2.17;;;;;;;16.88;37.74;98591.81;2618037;47;20041;-64
2022/05/31 20:55:24;;;;;;;4.38;2.80;;;;;;;16.79;38.08;98586.03;2619079;39;20537;-64
2022/05/31 20:57:56;;;;;;;4.05;2.70;;;;;;;16.72;38.67;98584.53;2618651;54;20026;-64
2022/05/31 21:00:27;;;;;;;4.25;3.10;;;;;;;16.64;38.77;98593.72;2618855;54;20034;-63
2022/05/31 21:02:58;;;;;;;5.72;4.40;;;;;;;16.63;38.26;98604.63;2618942;54;20121;-64
2022/05/31 21:05:28;;;;;;;9.88;6.10;;;;;;;16.64;38.57;98601.72;2618736;54;20030;-66
2022/05/31 21:08:01;;;;;;;9.85;6.18;;;;;;;16.65;38.82;98603.34;2619036;47;20034;-64
2022/05/31 21:10:35;;;;;;;5.15;3.05;;;;;;;16.56;38.87;98610.91;2619061;54;20038;-67
2022/05/31 21:13:07;;;;;;;2.97;2.28;;;;;;;16.33;39.28;98606.44;2619100;47;20022;-66
2022/05/31 21:15:37;;;;;;;3.45;2.40;;;;;;;16.21;40.14;98610.16;2620362;54;20051;-64
2022/05/31 21:18:07;;;;;;;2.97;2.03;;;;;;;16.13;40.30;98605.19;2622109;54;20566;-63
2022/05/31 21:20:37;;;;;;;3.85;2.30;;;;;;;16.13;40.55;98605.19;2621879;54;20066;-65
2022/05/31 21:23:10;;;;;;;5.53;2.00;;;;;;;16.01;40.49;98611.34;2622285;54;20541;-67
2022/05/31 21:25:41;;;;;;;3.40;1.90;;;;;;;15.85;41.19;98612.84;2622156;54;20081;-65
2022/05/31 21:28:15;;;;;;;4.35;3.20;;;;;;;15.88;41.44;98616.06;2621820;54;20310;-65
2022/05/31 21:30:45;;;;;;;5.93;4.00;;;;;;;15.91;41.21;98612.94;2621933;54;20026;-64
2022/05/31 21:33:19;;;;;;;2.95;2.20;;;;;;;15.89;41.58;98615.03;2621812;54;20031;-65
2022/05/31 21:35:50;;;;;;;3.85;2.47;;;;;;;15.80;41.38;98611.91;2620717;47;20026;-67
2022/05/31 21:38:25;;;;;;;2.85;2.30;;;;;;;15.72;41.55;98612.25;2621340;47;20030;-67
2022/05/31 21:43:37;;;;;;;4.15;2.60;;;;;;;15.36;42.69;98620.16;2622346;54;20038;-64
2022/05/31 21:46:07;;;;;;;3.17;2.22;;;;;;;15.24;42.79;98621.16;2622460;54;20040;-64
2022/05/31 21:48:37;;;;;;;2.78;2.22;;;;;;;15.22;42.86;98617.88;2621092;47;20038;-64
2022/05/31 21:51:09;;;;;;;4.00;2.40;;;;;;;15.17;43.33;98623.91;2621845;54;20030;-63
2022/05/31 21:53:47;;;;;;;2.67;2.15;;;;;;;15.11;43.27;98622.16;2620908;47;20557;-64
2022/05/31 21:56:20;;;;;;;5.35;3.00;;;;;;;15.08;43.52;98626.06;2620164;39;20449;-65
2022/05/31 21:58:50;;;;;;;5.35;2.47;;;;;;;15.02;43.78;98629.66;2618482;54;20030;-64
2022/05/31 22:01:22;;;;;;;2.85;2.05;;;;;;;14.76;44.36;98624.66;2593102;31;21438;-63
2022/05/31 22:03:53;;;;;;;5.32;2.67;;;;;;;14.79;44.55;98627.69;2618503;54;20045;-67
2022/05/31 22:06:24;;;;;;;3.63;2.95;;;;;;;14.94;44.27;98631.78;2619284;54;20562;-66
2022/05/31 22:08:57;;;;;;;4.50;2.72;;;;;;;14.99;44.23;98631.94;2619302;54;20029;-65
2022/05/31 22:11:29;;;;;;;3.13;2.50;;;;;;;14.97;44.67;98634.00;2619771;54;20037;-65
2022/05/31 22:14:04;;;;;;;3.05;2.45;;;;;;;14.79;44.70;98634.84;2620154;54;20161;-65
2022/05/31 22:16:34;;;;;;;4.60;2.65;;;;;;;14.64;45.50;98631.75;2620348;54;20542;-64
2022/05/31 22:19:05;;;;;;;4.45;2.60;;;;;;;14.52;45.37;98634.34;2620512;54;20034;-65